sensor_id;sensor_type;location;lat;lon;timestamp;P1;durP1;ratioP1;P2;durP2;ratioP2
1010;SDS011;494;48.744;10.106;2023-02-15T00:01:18;46.65;;;22.50;;
1010;SDS011;494;48.744;10.106;2023-02-15T00:03:47;45.05;;;23.13;;
1010;SDS011;494;48.744;10.106;2023-02-15T00:06:18;44.42;;;22.58;;
1010;SDS011;494;48.744;10.106;2023-02-15T00:08:47;44.92;;;22.33;;
1010;SDS011;494;48.744;10.106;2023-02-15T00:11:16;49.83;;;22.33;;
1010;SDS011;494;48.744;10.106;2023-02-15T00:14:06;44.78;;;20.83;;
1010;SDS011;494;48.744;10.106;2023-02-15T00:16:37;37.47;;;20.58;;
1010;SDS011;494;48.744;10.106;2023-02-15T00:19:07;39.92;;;20.85;;
1010;SDS011;494;48.744;10.106;2023-02-15T00:21:39;41.47;;;20.27;;
1010;SDS011;494;48.744;10.106;2023-02-15T00:24:08;45.38;;;22.48;;
1010;SDS011;494;48.744;10.106;2023-02-15T00:26:39;39.17;;;19.92;;
1010;SDS011;494;48.744;10.106;2023-02-15T00:29:10;41.55;;;20.30;;
1010;SDS011;494;48.744;10.106;2023-02-15T00:31:40;37.65;;;19.30;;
1010;SDS011;494;48.744;10.106;2023-02-15T00:34:10;36.92;;;19.08;;
1010;SDS011;494;48.744;10.106;2023-02-15T00:36:43;37.42;;;19.98;;
1010;SDS011;494;48.744;10.106;2023-02-15T00:39:12;40.20;;;20.05;;
1010;SDS011;494;48.744;10.106;2023-02-15T00:41:41;38.53;;;18.40;;
1010;SDS011;494;48.744;10.106;2023-02-15T00:44:10;42.17;;;19.02;;
1010;SDS011;494;48.744;10.106;2023-02-15T00:46:39;42.75;;;20.45;;
1010;SDS011;494;48.744;10.106;2023-02-15T00:49:07;39.15;;;20.05;;
1010;SDS011;494;48.744;10.106;2023-02-15T00:51:37;38.97;;;19.20;;
1010;SDS011;494;48.744;10.106;2023-02-15T00:54:07;39.90;;;19.80;;
1010;SDS011;494;48.744;10.106;2023-02-15T00:56:35;38.72;;;18.77;;
1010;SDS011;494;48.744;10.106;2023-02-15T00:59:04;41.75;;;19.45;;
1010;SDS011;494;48.744;10.106;2023-02-15T01:01:33;41.50;;;19.90;;
1010;SDS011;494;48.744;10.106;2023-02-15T01:04:01;40.17;;;20.20;;
1010;SDS011;494;48.744;10.106;2023-02-15T01:06:30;45.97;;;21.63;;
1010;SDS011;494;48.744;10.106;2023-02-15T01:08:59;36.50;;;19.15;;
1010;SDS011;494;48.744;10.106;2023-02-15T01:11:29;40.97;;;20.88;;
1010;SDS011;494;48.744;10.106;2023-02-15T01:13:57;36.80;;;19.35;;
1010;SDS011;494;48.744;10.106;2023-02-15T01:16:27;39.17;;;19.38;;
1010;SDS011;494;48.744;10.106;2023-02-15T01:18:56;37.85;;;18.85;;
1010;SDS011;494;48.744;10.106;2023-02-15T01:21:25;37.88;;;18.55;;
1010;SDS011;494;48.744;10.106;2023-02-15T01:23:54;35.90;;;18.38;;
1010;SDS011;494;48.744;10.106;2023-02-15T01:26:23;37.28;;;19.10;;
1010;SDS011;494;48.744;10.106;2023-02-15T01:28:53;36.28;;;18.75;;
1010;SDS011;494;48.744;10.106;2023-02-15T01:31:21;38.45;;;19.75;;
1010;SDS011;494;48.744;10.106;2023-02-15T01:33:50;37.67;;;19.15;;
1010;SDS011;494;48.744;10.106;2023-02-15T01:36:19;36.95;;;18.95;;
1010;SDS011;494;48.744;10.106;2023-02-15T01:38:47;33.83;;;17.92;;
1010;SDS011;494;48.744;10.106;2023-02-15T01:41:16;36.08;;;18.30;;
1010;SDS011;494;48.744;10.106;2023-02-15T01:43:50;36.97;;;18.90;;
1010;SDS011;494;48.744;10.106;2023-02-15T01:46:24;36.80;;;18.75;;
1010;SDS011;494;48.744;10.106;2023-02-15T01:49:00;36.85;;;19.23;;
1010;SDS011;494;48.744;10.106;2023-02-15T01:51:34;38.53;;;18.27;;
1010;SDS011;494;48.744;10.106;2023-02-15T01:54:06;39.35;;;19.08;;
1010;SDS011;494;48.744;10.106;2023-02-15T01:56:42;37.10;;;19.52;;
1010;SDS011;494;48.744;10.106;2023-02-15T01:59:13;38.30;;;19.25;;
1010;SDS011;494;48.744;10.106;2023-02-15T02:01:48;37.08;;;18.83;;
1010;SDS011;494;48.744;10.106;2023-02-15T02:04:20;37.47;;;19.63;;
1010;SDS011;494;48.744;10.106;2023-02-15T02:07:00;39.80;;;19.83;;
1010;SDS011;494;48.744;10.106;2023-02-15T02:09:32;39.90;;;19.27;;
1010;SDS011;494;48.744;10.106;2023-02-15T02:12:01;38.45;;;19.40;;
1010;SDS011;494;48.744;10.106;2023-02-15T02:14:31;38.42;;;19.90;;
1010;SDS011;494;48.744;10.106;2023-02-15T02:17:03;37.47;;;18.38;;
1010;SDS011;494;48.744;10.106;2023-02-15T02:19:46;35.03;;;17.92;;
1010;SDS011;494;48.744;10.106;2023-02-15T02:25:59;34.60;;;17.85;;
1010;SDS011;494;48.744;10.106;2023-02-15T02:32:51;34.33;;;17.17;;
1010;SDS011;494;48.744;10.106;2023-02-15T02:35:53;36.22;;;18.73;;
1010;SDS011;494;48.744;10.106;2023-02-15T02:38:37;38.72;;;18.70;;
1010;SDS011;494;48.744;10.106;2023-02-15T02:41:20;36.00;;;18.05;;
1010;SDS011;494;48.744;10.106;2023-02-15T02:43:59;34.90;;;18.33;;
1010;SDS011;494;48.744;10.106;2023-02-15T02:46:37;38.78;;;19.20;;
1010;SDS011;494;48.744;10.106;2023-02-15T02:49:16;42.38;;;18.95;;
1010;SDS011;494;48.744;10.106;2023-02-15T02:51:58;35.72;;;17.75;;
1010;SDS011;494;48.744;10.106;2023-02-15T02:54:28;39.60;;;19.50;;
1010;SDS011;494;48.744;10.106;2023-02-15T02:56:58;34.75;;;17.17;;
1010;SDS011;494;48.744;10.106;2023-02-15T02:59:36;36.35;;;17.92;;
1010;SDS011;494;48.744;10.106;2023-02-15T03:02:11;34.45;;;17.10;;
1010;SDS011;494;48.744;10.106;2023-02-15T03:04:49;38.85;;;18.05;;
1010;SDS011;494;48.744;10.106;2023-02-15T03:07:30;35.22;;;18.55;;
1010;SDS011;494;48.744;10.106;2023-02-15T03:10:03;37.65;;;18.20;;
1010;SDS011;494;48.744;10.106;2023-02-15T03:12:35;33.83;;;17.63;;
1010;SDS011;494;48.744;10.106;2023-02-15T03:15:08;38.80;;;18.60;;
1010;SDS011;494;48.744;10.106;2023-02-15T03:17:45;36.15;;;17.63;;
1010;SDS011;494;48.744;10.106;2023-02-15T03:20:21;34.90;;;17.60;;
1010;SDS011;494;48.744;10.106;2023-02-15T03:22:55;33.58;;;17.63;;
1010;SDS011;494;48.744;10.106;2023-02-15T03:25:30;34.70;;;17.85;;
1010;SDS011;494;48.744;10.106;2023-02-15T03:28:05;35.30;;;17.35;;
1010;SDS011;494;48.744;10.106;2023-02-15T03:30:39;35.00;;;18.05;;
1010;SDS011;494;48.744;10.106;2023-02-15T03:33:11;34.00;;;17.50;;
1010;SDS011;494;48.744;10.106;2023-02-15T03:35:46;35.15;;;18.08;;
1010;SDS011;494;48.744;10.106;2023-02-15T03:38:25;31.80;;;16.30;;
1010;SDS011;494;48.744;10.106;2023-02-15T03:41:02;33.05;;;17.70;;
1010;SDS011;494;48.744;10.106;2023-02-15T03:43:38;36.78;;;16.95;;
1010;SDS011;494;48.744;10.106;2023-02-15T03:46:18;33.45;;;18.02;;
1010;SDS011;494;48.744;10.106;2023-02-15T03:48:55;33.33;;;16.50;;
1010;SDS011;494;48.744;10.106;2023-02-15T03:51:32;31.83;;;16.35;;
1010;SDS011;494;48.744;10.106;2023-02-15T03:54:06;32.72;;;17.00;;
1010;SDS011;494;48.744;10.106;2023-02-15T03:56:37;33.75;;;17.13;;
1010;SDS011;494;48.744;10.106;2023-02-15T03:59:29;34.05;;;18.67;;
1010;SDS011;494;48.744;10.106;2023-02-15T04:02:15;37.22;;;19.05;;
1010;SDS011;494;48.744;10.106;2023-02-15T04:04:53;36.15;;;17.67;;
1010;SDS011;494;48.744;10.106;2023-02-15T04:07:23;36.78;;;18.77;;
1010;SDS011;494;48.744;10.106;2023-02-15T04:09:52;36.63;;;18.10;;
1010;SDS011;494;48.744;10.106;2023-02-15T04:12:37;37.13;;;18.92;;
1010;SDS011;494;48.744;10.106;2023-02-15T04:15:07;35.47;;;18.17;;
1010;SDS011;494;48.744;10.106;2023-02-15T04:17:57;33.90;;;17.35;;
1010;SDS011;494;48.744;10.106;2023-02-15T04:20:25;34.65;;;18.42;;
1010;SDS011;494;48.744;10.106;2023-02-15T04:23:12;35.63;;;18.27;;
1010;SDS011;494;48.744;10.106;2023-02-15T04:25:58;34.60;;;18.60;;
1010;SDS011;494;48.744;10.106;2023-02-15T04:28:31;34.65;;;17.65;;
1010;SDS011;494;48.744;10.106;2023-02-15T04:30:59;37.60;;;18.85;;
1010;SDS011;494;48.744;10.106;2023-02-15T04:33:28;35.33;;;17.77;;
1010;SDS011;494;48.744;10.106;2023-02-15T04:35:57;39.50;;;19.20;;
1010;SDS011;494;48.744;10.106;2023-02-15T04:38:27;35.50;;;18.10;;
1010;SDS011;494;48.744;10.106;2023-02-15T04:40:56;32.95;;;17.40;;
1010;SDS011;494;48.744;10.106;2023-02-15T04:43:41;34.20;;;17.73;;
1010;SDS011;494;48.744;10.106;2023-02-15T04:46:10;37.70;;;18.52;;
1010;SDS011;494;48.744;10.106;2023-02-15T04:48:38;33.08;;;16.55;;
1010;SDS011;494;48.744;10.106;2023-02-15T04:51:07;32.15;;;15.82;;
1010;SDS011;494;48.744;10.106;2023-02-15T04:53:36;28.35;;;15.65;;
1010;SDS011;494;48.744;10.106;2023-02-15T04:56:05;36.33;;;18.30;;
1010;SDS011;494;48.744;10.106;2023-02-15T04:58:34;37.33;;;18.40;;
1010;SDS011;494;48.744;10.106;2023-02-15T05:01:04;35.10;;;18.08;;
1010;SDS011;494;48.744;10.106;2023-02-15T05:03:33;34.50;;;18.25;;
1010;SDS011;494;48.744;10.106;2023-02-15T05:06:02;35.55;;;17.75;;
1010;SDS011;494;48.744;10.106;2023-02-15T05:08:32;34.67;;;17.98;;
1010;SDS011;494;48.744;10.106;2023-02-15T05:11:00;36.30;;;18.10;;
1010;SDS011;494;48.744;10.106;2023-02-15T05:13:33;31.08;;;16.17;;
1010;SDS011;494;48.744;10.106;2023-02-15T05:16:02;30.35;;;16.05;;
1010;SDS011;494;48.744;10.106;2023-02-15T05:18:32;37.22;;;17.50;;
1010;SDS011;494;48.744;10.106;2023-02-15T05:21:01;34.80;;;17.45;;
1010;SDS011;494;48.744;10.106;2023-02-15T05:23:29;32.97;;;17.52;;
1010;SDS011;494;48.744;10.106;2023-02-15T05:25:58;33.35;;;17.58;;
1010;SDS011;494;48.744;10.106;2023-02-15T05:28:44;39.70;;;19.05;;
1010;SDS011;494;48.744;10.106;2023-02-15T05:31:14;36.13;;;18.58;;
1010;SDS011;494;48.744;10.106;2023-02-15T05:33:46;39.17;;;20.05;;
1010;SDS011;494;48.744;10.106;2023-02-15T05:36:15;38.33;;;18.83;;
1010;SDS011;494;48.744;10.106;2023-02-15T05:38:43;35.90;;;18.25;;
1010;SDS011;494;48.744;10.106;2023-02-15T05:41:12;41.05;;;20.20;;
1010;SDS011;494;48.744;10.106;2023-02-15T05:43:41;38.65;;;18.63;;
1010;SDS011;494;48.744;10.106;2023-02-15T05:46:10;37.25;;;19.33;;
1010;SDS011;494;48.744;10.106;2023-02-15T05:48:41;38.75;;;19.10;;
1010;SDS011;494;48.744;10.106;2023-02-15T05:51:10;36.92;;;18.55;;
1010;SDS011;494;48.744;10.106;2023-02-15T05:53:41;33.38;;;16.80;;
1010;SDS011;494;48.744;10.106;2023-02-15T05:56:10;29.10;;;15.68;;
1010;SDS011;494;48.744;10.106;2023-02-15T05:58:40;34.17;;;16.45;;
1010;SDS011;494;48.744;10.106;2023-02-15T06:01:09;28.92;;;15.05;;
1010;SDS011;494;48.744;10.106;2023-02-15T06:03:41;29.20;;;15.18;;
1010;SDS011;494;48.744;10.106;2023-02-15T06:06:10;32.10;;;16.38;;
1010;SDS011;494;48.744;10.106;2023-02-15T06:08:53;34.28;;;16.25;;
1010;SDS011;494;48.744;10.106;2023-02-15T06:11:22;32.85;;;16.50;;
1010;SDS011;494;48.744;10.106;2023-02-15T06:13:52;33.05;;;16.60;;
1010;SDS011;494;48.744;10.106;2023-02-15T06:16:21;32.30;;;16.55;;
1010;SDS011;494;48.744;10.106;2023-02-15T06:18:51;31.33;;;16.27;;
1010;SDS011;494;48.744;10.106;2023-02-15T06:21:20;33.80;;;17.00;;
1010;SDS011;494;48.744;10.106;2023-02-15T06:23:48;33.28;;;17.15;;
1010;SDS011;494;48.744;10.106;2023-02-15T06:26:17;33.33;;;17.92;;
1010;SDS011;494;48.744;10.106;2023-02-15T06:28:46;31.13;;;16.25;;
1010;SDS011;494;48.744;10.106;2023-02-15T06:31:15;34.58;;;17.58;;
1010;SDS011;494;48.744;10.106;2023-02-15T06:33:44;33.25;;;16.75;;
1010;SDS011;494;48.744;10.106;2023-02-15T06:36:14;35.63;;;17.67;;
1010;SDS011;494;48.744;10.106;2023-02-15T06:38:43;34.33;;;17.55;;
1010;SDS011;494;48.744;10.106;2023-02-15T06:41:12;31.58;;;16.38;;
1010;SDS011;494;48.744;10.106;2023-02-15T06:43:41;35.42;;;17.25;;
1010;SDS011;494;48.744;10.106;2023-02-15T06:46:24;32.33;;;17.15;;
1010;SDS011;494;48.744;10.106;2023-02-15T06:48:53;30.90;;;16.83;;
1010;SDS011;494;48.744;10.106;2023-02-15T06:51:23;32.25;;;16.23;;
1010;SDS011;494;48.744;10.106;2023-02-15T06:53:52;32.10;;;17.08;;
1010;SDS011;494;48.744;10.106;2023-02-15T06:56:21;31.92;;;16.55;;
1010;SDS011;494;48.744;10.106;2023-02-15T06:58:50;36.35;;;17.75;;
1010;SDS011;494;48.744;10.106;2023-02-15T07:01:19;32.83;;;17.17;;
1010;SDS011;494;48.744;10.106;2023-02-15T07:03:47;34.97;;;18.60;;
1010;SDS011;494;48.744;10.106;2023-02-15T07:06:17;34.15;;;17.48;;
1010;SDS011;494;48.744;10.106;2023-02-15T07:08:47;33.63;;;17.02;;
1010;SDS011;494;48.744;10.106;2023-02-15T07:11:16;32.50;;;18.38;;
1010;SDS011;494;48.744;10.106;2023-02-15T07:14:02;29.98;;;15.95;;
1010;SDS011;494;48.744;10.106;2023-02-15T07:16:31;32.95;;;18.13;;
1010;SDS011;494;48.744;10.106;2023-02-15T07:18:59;29.20;;;15.75;;
1010;SDS011;494;48.744;10.106;2023-02-15T07:21:28;33.15;;;16.52;;
1010;SDS011;494;48.744;10.106;2023-02-15T07:23:58;33.30;;;17.60;;
1010;SDS011;494;48.744;10.106;2023-02-15T07:26:27;33.70;;;17.55;;
1010;SDS011;494;48.744;10.106;2023-02-15T07:28:57;34.42;;;18.73;;
1010;SDS011;494;48.744;10.106;2023-02-15T07:31:26;33.83;;;17.27;;
1010;SDS011;494;48.744;10.106;2023-02-15T07:33:55;33.30;;;17.55;;
1010;SDS011;494;48.744;10.106;2023-02-15T07:36:24;32.83;;;17.35;;
1010;SDS011;494;48.744;10.106;2023-02-15T07:38:52;37.33;;;18.75;;
1010;SDS011;494;48.744;10.106;2023-02-15T07:41:22;34.78;;;17.98;;
1010;SDS011;494;48.744;10.106;2023-02-15T07:43:51;37.15;;;18.50;;
1010;SDS011;494;48.744;10.106;2023-02-15T07:46:19;38.78;;;19.30;;
1010;SDS011;494;48.744;10.106;2023-02-15T07:48:48;31.25;;;16.65;;
1010;SDS011;494;48.744;10.106;2023-02-15T07:51:17;33.80;;;17.67;;
1010;SDS011;494;48.744;10.106;2023-02-15T07:53:46;31.90;;;16.48;;
1010;SDS011;494;48.744;10.106;2023-02-15T07:56:14;33.63;;;17.42;;
1010;SDS011;494;48.744;10.106;2023-02-15T07:58:44;31.45;;;17.38;;
1010;SDS011;494;48.744;10.106;2023-02-15T08:01:20;35.95;;;17.60;;
1010;SDS011;494;48.744;10.106;2023-02-15T08:03:53;50.70;;;18.27;;
1010;SDS011;494;48.744;10.106;2023-02-15T08:06:23;35.67;;;18.92;;
1010;SDS011;494;48.744;10.106;2023-02-15T08:08:54;32.25;;;17.80;;
1010;SDS011;494;48.744;10.106;2023-02-15T08:11:24;31.48;;;16.67;;
1010;SDS011;494;48.744;10.106;2023-02-15T08:14:02;31.00;;;17.45;;
1010;SDS011;494;48.744;10.106;2023-02-15T08:16:34;31.98;;;17.30;;
1010;SDS011;494;48.744;10.106;2023-02-15T08:19:06;31.60;;;17.55;;
1010;SDS011;494;48.744;10.106;2023-02-15T08:21:37;31.45;;;17.10;;
1010;SDS011;494;48.744;10.106;2023-02-15T08:24:08;29.48;;;16.35;;
1010;SDS011;494;48.744;10.106;2023-02-15T08:26:39;32.20;;;18.15;;
1010;SDS011;494;48.744;10.106;2023-02-15T08:29:10;34.55;;;17.80;;
1010;SDS011;494;48.744;10.106;2023-02-15T08:31:39;31.90;;;17.10;;
1010;SDS011;494;48.744;10.106;2023-02-15T08:34:08;32.10;;;18.48;;
1010;SDS011;494;48.744;10.106;2023-02-15T08:36:40;31.25;;;17.25;;
1010;SDS011;494;48.744;10.106;2023-02-15T08:39:12;30.60;;;17.40;;
1010;SDS011;494;48.744;10.106;2023-02-15T08:41:43;32.47;;;17.85;;
1010;SDS011;494;48.744;10.106;2023-02-15T08:44:15;33.05;;;18.30;;
1010;SDS011;494;48.744;10.106;2023-02-15T08:46:49;34.23;;;18.77;;
1010;SDS011;494;48.744;10.106;2023-02-15T08:49:18;38.40;;;20.10;;
1010;SDS011;494;48.744;10.106;2023-02-15T08:51:49;36.37;;;20.50;;
1010;SDS011;494;48.744;10.106;2023-02-15T08:54:18;31.60;;;17.83;;
1010;SDS011;494;48.744;10.106;2023-02-15T08:56:48;31.50;;;17.37;;
1010;SDS011;494;48.744;10.106;2023-02-15T08:59:18;33.83;;;19.17;;
1010;SDS011;494;48.744;10.106;2023-02-15T09:01:50;35.50;;;20.33;;
1010;SDS011;494;48.744;10.106;2023-02-15T09:04:19;35.30;;;18.60;;
1010;SDS011;494;48.744;10.106;2023-02-15T09:06:49;34.33;;;19.33;;
1010;SDS011;494;48.744;10.106;2023-02-15T09:09:19;38.90;;;21.47;;
1010;SDS011;494;48.744;10.106;2023-02-15T09:11:49;37.23;;;21.30;;
1010;SDS011;494;48.744;10.106;2023-02-15T09:14:26;35.23;;;20.17;;
1010;SDS011;494;48.744;10.106;2023-02-15T09:16:55;37.80;;;21.47;;
1010;SDS011;494;48.744;10.106;2023-02-15T09:19:24;34.80;;;17.87;;
1010;SDS011;494;48.744;10.106;2023-02-15T09:21:53;36.53;;;18.90;;
1010;SDS011;494;48.744;10.106;2023-02-15T09:24:21;33.10;;;18.30;;
1010;SDS011;494;48.744;10.106;2023-02-15T09:26:50;36.07;;;18.23;;
1010;SDS011;494;48.744;10.106;2023-02-15T09:29:19;32.73;;;19.23;;
1010;SDS011;494;48.744;10.106;2023-02-15T09:31:50;34.00;;;18.20;;
1010;SDS011;494;48.744;10.106;2023-02-15T09:34:21;28.60;;;16.90;;
1010;SDS011;494;48.744;10.106;2023-02-15T09:36:51;28.03;;;16.83;;
1010;SDS011;494;48.744;10.106;2023-02-15T09:39:20;31.30;;;17.97;;
1010;SDS011;494;48.744;10.106;2023-02-15T09:48:32;35.80;;;20.20;;
1010;SDS011;494;48.744;10.106;2023-02-15T09:51:21;33.87;;;19.13;;
1010;SDS011;494;48.744;10.106;2023-02-15T09:54:19;35.60;;;19.80;;
1010;SDS011;494;48.744;10.106;2023-02-15T09:57:07;37.50;;;22.47;;
1010;SDS011;494;48.744;10.106;2023-02-15T09:59:49;33.60;;;20.20;;
1010;SDS011;494;48.744;10.106;2023-02-15T10:02:35;31.90;;;18.17;;
1010;SDS011;494;48.744;10.106;2023-02-15T10:05:24;33.57;;;19.77;;
1010;SDS011;494;48.744;10.106;2023-02-15T10:08:11;36.10;;;19.87;;
1010;SDS011;494;48.744;10.106;2023-02-15T10:11:24;37.80;;;21.80;;
1010;SDS011;494;48.744;10.106;2023-02-15T10:14:11;42.10;;;25.00;;
1010;SDS011;494;48.744;10.106;2023-02-15T10:17:08;35.83;;;20.40;;
1010;SDS011;494;48.744;10.106;2023-02-15T10:20:02;39.50;;;20.97;;
1010;SDS011;494;48.744;10.106;2023-02-15T10:22:52;38.93;;;19.80;;
1010;SDS011;494;48.744;10.106;2023-02-15T10:25:40;37.53;;;21.50;;
1010;SDS011;494;48.744;10.106;2023-02-15T10:28:19;39.97;;;21.43;;
1010;SDS011;494;48.744;10.106;2023-02-15T10:30:58;45.20;;;22.93;;
1010;SDS011;494;48.744;10.106;2023-02-15T10:33:39;43.03;;;22.23;;
1010;SDS011;494;48.744;10.106;2023-02-15T10:36:13;49.70;;;23.17;;
1010;SDS011;494;48.744;10.106;2023-02-15T10:39:04;42.17;;;23.17;;
1010;SDS011;494;48.744;10.106;2023-02-15T10:41:42;47.37;;;23.47;;
1010;SDS011;494;48.744;10.106;2023-02-15T10:44:26;49.70;;;24.00;;
1010;SDS011;494;48.744;10.106;2023-02-15T10:47:16;46.40;;;24.10;;
1010;SDS011;494;48.744;10.106;2023-02-15T10:50:06;46.77;;;23.70;;
1010;SDS011;494;48.744;10.106;2023-02-15T10:52:56;43.63;;;23.23;;
1010;SDS011;494;48.744;10.106;2023-02-15T10:55:50;46.30;;;24.03;;
1010;SDS011;494;48.744;10.106;2023-02-15T10:58:30;48.93;;;25.10;;
1010;SDS011;494;48.744;10.106;2023-02-15T11:01:18;46.20;;;23.50;;
1010;SDS011;494;48.744;10.106;2023-02-15T11:07:15;44.00;;;22.97;;
1010;SDS011;494;48.744;10.106;2023-02-15T11:09:51;45.07;;;22.80;;
1010;SDS011;494;48.744;10.106;2023-02-15T11:12:34;49.23;;;24.90;;
1010;SDS011;494;48.744;10.106;2023-02-15T11:15:04;48.53;;;23.60;;
1010;SDS011;494;48.744;10.106;2023-02-15T11:17:48;46.10;;;23.17;;
1010;SDS011;494;48.744;10.106;2023-02-15T11:20:24;40.57;;;22.60;;
1010;SDS011;494;48.744;10.106;2023-02-15T11:22:57;44.00;;;22.40;;
1010;SDS011;494;48.744;10.106;2023-02-15T11:25:30;45.10;;;22.87;;
1010;SDS011;494;48.744;10.106;2023-02-15T11:28:04;42.17;;;23.10;;
1010;SDS011;494;48.744;10.106;2023-02-15T11:30:47;38.23;;;22.20;;
1010;SDS011;494;48.744;10.106;2023-02-15T11:33:22;41.80;;;23.93;;
1010;SDS011;494;48.744;10.106;2023-02-15T11:35:58;59.07;;;35.33;;
1010;SDS011;494;48.744;10.106;2023-02-15T11:38:37;40.77;;;22.10;;
1010;SDS011;494;48.744;10.106;2023-02-15T11:41:10;43.10;;;25.50;;
1010;SDS011;494;48.744;10.106;2023-02-15T11:43:48;48.47;;;27.90;;
1010;SDS011;494;48.744;10.106;2023-02-15T11:46:24;46.17;;;27.40;;
1010;SDS011;494;48.744;10.106;2023-02-15T11:48:52;35.90;;;22.23;;
1010;SDS011;494;48.744;10.106;2023-02-15T11:51:22;35.77;;;21.53;;
1010;SDS011;494;48.744;10.106;2023-02-15T11:53:51;39.70;;;22.27;;
1010;SDS011;494;48.744;10.106;2023-02-15T11:56:21;36.47;;;23.10;;
1010;SDS011;494;48.744;10.106;2023-02-15T11:58:54;38.93;;;22.53;;
1010;SDS011;494;48.744;10.106;2023-02-15T12:01:29;34.40;;;21.00;;
1010;SDS011;494;48.744;10.106;2023-02-15T12:04:06;37.50;;;22.77;;
1010;SDS011;494;48.744;10.106;2023-02-15T12:06:46;36.17;;;22.13;;
1010;SDS011;494;48.744;10.106;2023-02-15T12:09:29;34.87;;;20.97;;
1010;SDS011;494;48.744;10.106;2023-02-15T12:15:03;33.50;;;21.43;;
1010;SDS011;494;48.744;10.106;2023-02-15T12:17:35;35.37;;;21.40;;
1010;SDS011;494;48.744;10.106;2023-02-15T12:20:20;35.27;;;21.47;;
1010;SDS011;494;48.744;10.106;2023-02-15T12:22:58;37.50;;;22.93;;
1010;SDS011;494;48.744;10.106;2023-02-15T12:25:33;37.27;;;23.40;;
1010;SDS011;494;48.744;10.106;2023-02-15T12:28:15;36.00;;;22.60;;
1010;SDS011;494;48.744;10.106;2023-02-15T12:31:07;39.80;;;23.27;;
1010;SDS011;494;48.744;10.106;2023-02-15T12:33:47;37.30;;;23.33;;
1010;SDS011;494;48.744;10.106;2023-02-15T12:36:21;35.00;;;22.90;;
1010;SDS011;494;48.744;10.106;2023-02-15T12:39:02;35.13;;;23.23;;
1010;SDS011;494;48.744;10.106;2023-02-15T12:41:43;35.10;;;23.20;;
1010;SDS011;494;48.744;10.106;2023-02-15T12:44:24;34.70;;;22.27;;
1010;SDS011;494;48.744;10.106;2023-02-15T12:46:57;34.10;;;23.03;;
1010;SDS011;494;48.744;10.106;2023-02-15T12:49:29;34.60;;;23.07;;
1010;SDS011;494;48.744;10.106;2023-02-15T12:52:00;36.83;;;23.23;;
1010;SDS011;494;48.744;10.106;2023-02-15T12:54:37;37.00;;;25.67;;
1010;SDS011;494;48.744;10.106;2023-02-15T12:57:15;35.37;;;23.83;;
1010;SDS011;494;48.744;10.106;2023-02-15T12:59:55;34.40;;;23.37;;
1010;SDS011;494;48.744;10.106;2023-02-15T13:02:29;36.90;;;24.40;;
1010;SDS011;494;48.744;10.106;2023-02-15T13:05:14;39.40;;;25.00;;
1010;SDS011;494;48.744;10.106;2023-02-15T13:07:59;37.70;;;24.37;;
1010;SDS011;494;48.744;10.106;2023-02-15T13:10:33;41.03;;;25.50;;
1010;SDS011;494;48.744;10.106;2023-02-15T13:13:09;37.20;;;24.53;;
1010;SDS011;494;48.744;10.106;2023-02-15T13:15:45;38.20;;;25.33;;
1010;SDS011;494;48.744;10.106;2023-02-15T13:18:23;39.73;;;26.10;;
1010;SDS011;494;48.744;10.106;2023-02-15T13:21:00;38.70;;;25.07;;
1010;SDS011;494;48.744;10.106;2023-02-15T13:23:39;41.07;;;25.83;;
1010;SDS011;494;48.744;10.106;2023-02-15T13:26:17;38.60;;;25.03;;
1010;SDS011;494;48.744;10.106;2023-02-15T13:28:51;40.00;;;25.50;;
1010;SDS011;494;48.744;10.106;2023-02-15T13:31:24;38.77;;;25.50;;
1010;SDS011;494;48.744;10.106;2023-02-15T13:34:02;40.50;;;25.97;;
1010;SDS011;494;48.744;10.106;2023-02-15T13:36:39;41.53;;;26.57;;
1010;SDS011;494;48.744;10.106;2023-02-15T13:39:21;42.80;;;26.60;;
1010;SDS011;494;48.744;10.106;2023-02-15T13:41:59;41.57;;;26.70;;
1010;SDS011;494;48.744;10.106;2023-02-15T13:44:45;38.73;;;25.90;;
1010;SDS011;494;48.744;10.106;2023-02-15T13:47:32;41.83;;;26.90;;
1010;SDS011;494;48.744;10.106;2023-02-15T13:53:30;40.30;;;26.23;;
1010;SDS011;494;48.744;10.106;2023-02-15T13:56:19;42.17;;;26.83;;
1010;SDS011;494;48.744;10.106;2023-02-15T13:59:05;41.70;;;27.40;;
1010;SDS011;494;48.744;10.106;2023-02-15T14:01:57;42.50;;;26.90;;
1010;SDS011;494;48.744;10.106;2023-02-15T14:08:07;43.27;;;28.90;;
1010;SDS011;494;48.744;10.106;2023-02-15T14:10:50;43.33;;;28.87;;
1010;SDS011;494;48.744;10.106;2023-02-15T14:13:50;46.87;;;30.43;;
1010;SDS011;494;48.744;10.106;2023-02-15T14:16:36;48.17;;;29.40;;
1010;SDS011;494;48.744;10.106;2023-02-15T14:19:33;44.90;;;29.27;;
1010;SDS011;494;48.744;10.106;2023-02-15T14:22:15;46.63;;;30.00;;
1010;SDS011;494;48.744;10.106;2023-02-15T14:25:04;49.73;;;29.97;;
1010;SDS011;494;48.744;10.106;2023-02-15T14:27:50;49.03;;;30.60;;
1010;SDS011;494;48.744;10.106;2023-02-15T14:30:30;45.13;;;29.97;;
1010;SDS011;494;48.744;10.106;2023-02-15T14:33:05;46.73;;;30.47;;
1010;SDS011;494;48.744;10.106;2023-02-15T14:35:53;48.33;;;29.67;;
1010;SDS011;494;48.744;10.106;2023-02-15T14:38:25;44.57;;;30.53;;
1010;SDS011;494;48.744;10.106;2023-02-15T14:41:13;45.10;;;30.27;;
1010;SDS011;494;48.744;10.106;2023-02-15T14:43:49;47.40;;;30.40;;
1010;SDS011;494;48.744;10.106;2023-02-15T14:46:30;48.50;;;29.63;;
1010;SDS011;494;48.744;10.106;2023-02-15T14:49:12;47.00;;;29.10;;
1010;SDS011;494;48.744;10.106;2023-02-15T14:51:55;45.73;;;30.40;;
1010;SDS011;494;48.744;10.106;2023-02-15T14:57:31;44.60;;;29.40;;
1010;SDS011;494;48.744;10.106;2023-02-15T15:00:15;45.47;;;30.07;;
1010;SDS011;494;48.744;10.106;2023-02-15T15:03:18;44.33;;;29.80;;
1010;SDS011;494;48.744;10.106;2023-02-15T15:05:51;42.50;;;29.30;;
1010;SDS011;494;48.744;10.106;2023-02-15T15:08:29;45.33;;;29.30;;
1010;SDS011;494;48.744;10.106;2023-02-15T15:14:15;50.17;;;29.10;;
1010;SDS011;494;48.744;10.106;2023-02-15T15:17:11;48.13;;;29.53;;
1010;SDS011;494;48.744;10.106;2023-02-15T15:20:03;46.57;;;28.50;;
1010;SDS011;494;48.744;10.106;2023-02-15T15:22:40;47.80;;;31.17;;
1010;SDS011;494;48.744;10.106;2023-02-15T15:25:11;50.50;;;31.17;;
1010;SDS011;494;48.744;10.106;2023-02-15T15:28:08;57.50;;;33.13;;
1010;SDS011;494;48.744;10.106;2023-02-15T15:30:58;56.47;;;34.73;;
1010;SDS011;494;48.744;10.106;2023-02-15T15:43:48;47.80;;;27.23;;
1010;SDS011;494;48.744;10.106;2023-02-15T15:49:54;44.10;;;25.13;;
1010;SDS011;494;48.744;10.106;2023-02-15T15:52:26;45.17;;;25.07;;
1010;SDS011;494;48.744;10.106;2023-02-15T15:55:04;43.47;;;23.70;;
1010;SDS011;494;48.744;10.106;2023-02-15T15:57:45;50.60;;;28.27;;
1010;SDS011;494;48.744;10.106;2023-02-15T16:00:25;47.00;;;27.23;;
1010;SDS011;494;48.744;10.106;2023-02-15T16:03:05;46.77;;;26.33;;
1010;SDS011;494;48.744;10.106;2023-02-15T16:05:42;50.50;;;27.07;;
1010;SDS011;494;48.744;10.106;2023-02-15T16:08:11;46.53;;;26.60;;
1010;SDS011;494;48.744;10.106;2023-02-15T16:10:40;43.00;;;23.83;;
1010;SDS011;494;48.744;10.106;2023-02-15T16:13:11;52.73;;;27.20;;
1010;SDS011;494;48.744;10.106;2023-02-15T16:15:43;49.23;;;25.93;;
1010;SDS011;494;48.744;10.106;2023-02-15T16:18:21;66.00;;;29.93;;
1010;SDS011;494;48.744;10.106;2023-02-15T16:20:54;64.20;;;32.40;;
1010;SDS011;494;48.744;10.106;2023-02-15T16:23:34;60.27;;;33.20;;